sensor_id;sensor_type;location;lat;lon;timestamp;P1;durP1;ratioP1;P2;durP2;ratioP2
18214;SDS011;9233;51.312;6.512;2022-11-20T00:00:31;12.13;;;6.20;;
18214;SDS011;9233;51.312;6.512;2022-11-20T00:03:23;11.97;;;6.43;;
18214;SDS011;9233;51.312;6.512;2022-11-20T00:06:10;9.23;;;5.70;;
18214;SDS011;9233;51.312;6.512;2022-11-20T00:08:59;10.83;;;6.53;;
18214;SDS011;9233;51.312;6.512;2022-11-20T00:11:46;10.33;;;5.90;;
18214;SDS011;9233;51.312;6.512;2022-11-20T00:14:34;12.17;;;6.63;;
18214;SDS011;9233;51.312;6.512;2022-11-20T00:17:20;11.93;;;6.37;;
18214;SDS011;9233;51.312;6.512;2022-11-20T00:20:07;11.10;;;6.63;;
18214;SDS011;9233;51.312;6.512;2022-11-20T00:22:55;12.43;;;6.13;;
18214;SDS011;9233;51.312;6.512;2022-11-20T00:25:41;11.83;;;6.17;;
18214;SDS011;9233;51.312;6.512;2022-11-20T00:28:28;10.33;;;6.40;;
18214;SDS011;9233;51.312;6.512;2022-11-20T00:31:16;18.90;;;10.50;;
18214;SDS011;9233;51.312;6.512;2022-11-20T00:34:03;17.13;;;7.90;;
18214;SDS011;9233;51.312;6.512;2022-11-20T00:36:49;14.37;;;7.43;;
18214;SDS011;9233;51.312;6.512;2022-11-20T00:39:36;16.27;;;7.20;;
18214;SDS011;9233;51.312;6.512;2022-11-20T00:42:22;12.40;;;6.43;;
18214;SDS011;9233;51.312;6.512;2022-11-20T00:45:09;13.00;;;6.43;;
18214;SDS011;9233;51.312;6.512;2022-11-20T00:47:57;13.60;;;6.60;;
18214;SDS011;9233;51.312;6.512;2022-11-20T00:50:43;11.80;;;6.73;;
18214;SDS011;9233;51.312;6.512;2022-11-20T00:53:30;11.90;;;6.73;;
18214;SDS011;9233;51.312;6.512;2022-11-20T00:56:17;13.90;;;7.20;;
18214;SDS011;9233;51.312;6.512;2022-11-20T00:59:05;12.33;;;6.37;;
18214;SDS011;9233;51.312;6.512;2022-11-20T01:01:51;12.20;;;5.90;;
18214;SDS011;9233;51.312;6.512;2022-11-20T01:04:39;10.73;;;6.03;;
18214;SDS011;9233;51.312;6.512;2022-11-20T01:07:26;10.53;;;6.27;;
18214;SDS011;9233;51.312;6.512;2022-11-20T01:10:12;11.10;;;6.37;;
18214;SDS011;9233;51.312;6.512;2022-11-20T01:12:59;11.00;;;6.13;;
18214;SDS011;9233;51.312;6.512;2022-11-20T01:16:01;9.87;;;5.97;;
18214;SDS011;9233;51.312;6.512;2022-11-20T01:18:49;10.43;;;5.80;;
18214;SDS011;9233;51.312;6.512;2022-11-20T01:21:38;10.63;;;5.63;;
18214;SDS011;9233;51.312;6.512;2022-11-20T01:24:26;10.40;;;6.03;;
18214;SDS011;9233;51.312;6.512;2022-11-20T01:27:12;14.73;;;6.63;;
18214;SDS011;9233;51.312;6.512;2022-11-20T01:29:59;9.67;;;5.90;;
18214;SDS011;9233;51.312;6.512;2022-11-20T01:32:45;10.23;;;6.00;;
18214;SDS011;9233;51.312;6.512;2022-11-20T01:35:32;10.40;;;5.93;;
18214;SDS011;9233;51.312;6.512;2022-11-20T01:38:20;8.27;;;5.40;;
18214;SDS011;9233;51.312;6.512;2022-11-20T01:41:08;12.30;;;6.23;;
18214;SDS011;9233;51.312;6.512;2022-11-20T01:43:55;9.73;;;5.90;;
18214;SDS011;9233;51.312;6.512;2022-11-20T01:46:42;11.20;;;6.60;;
18214;SDS011;9233;51.312;6.512;2022-11-20T01:49:37;10.30;;;6.03;;
18214;SDS011;9233;51.312;6.512;2022-11-20T01:52:26;9.63;;;6.03;;
18214;SDS011;9233;51.312;6.512;2022-11-20T01:55:17;11.90;;;7.27;;
18214;SDS011;9233;51.312;6.512;2022-11-20T01:58:05;12.37;;;6.57;;
18214;SDS011;9233;51.312;6.512;2022-11-20T02:00:52;12.27;;;6.83;;
18214;SDS011;9233;51.312;6.512;2022-11-20T02:03:39;12.63;;;6.90;;
18214;SDS011;9233;51.312;6.512;2022-11-20T02:06:26;11.63;;;6.73;;
18214;SDS011;9233;51.312;6.512;2022-11-20T02:09:15;10.93;;;6.53;;
18214;SDS011;9233;51.312;6.512;2022-11-20T02:12:04;11.47;;;6.60;;
18214;SDS011;9233;51.312;6.512;2022-11-20T02:15:10;10.80;;;6.33;;
18214;SDS011;9233;51.312;6.512;2022-11-20T02:17:56;10.77;;;6.33;;
18214;SDS011;9233;51.312;6.512;2022-11-20T02:20:43;9.43;;;6.17;;
18214;SDS011;9233;51.312;6.512;2022-11-20T02:23:32;10.63;;;6.57;;
18214;SDS011;9233;51.312;6.512;2022-11-20T02:26:21;10.67;;;6.40;;
18214;SDS011;9233;51.312;6.512;2022-11-20T02:29:09;14.60;;;7.23;;
18214;SDS011;9233;51.312;6.512;2022-11-20T02:31:56;9.73;;;6.70;;
18214;SDS011;9233;51.312;6.512;2022-11-20T02:34:44;12.27;;;6.63;;
18214;SDS011;9233;51.312;6.512;2022-11-20T02:37:31;10.67;;;6.50;;
18214;SDS011;9233;51.312;6.512;2022-11-20T02:40:19;10.70;;;6.73;;
18214;SDS011;9233;51.312;6.512;2022-11-20T02:43:07;11.27;;;6.60;;
18214;SDS011;9233;51.312;6.512;2022-11-20T02:45:54;11.63;;;6.63;;
18214;SDS011;9233;51.312;6.512;2022-11-20T02:48:41;11.23;;;6.80;;
18214;SDS011;9233;51.312;6.512;2022-11-20T02:51:27;13.20;;;6.87;;
18214;SDS011;9233;51.312;6.512;2022-11-20T02:54:14;13.07;;;7.23;;
18214;SDS011;9233;51.312;6.512;2022-11-20T02:57:00;10.67;;;6.50;;
18214;SDS011;9233;51.312;6.512;2022-11-20T02:59:48;13.53;;;7.50;;
18214;SDS011;9233;51.312;6.512;2022-11-20T03:02:35;12.60;;;6.30;;
18214;SDS011;9233;51.312;6.512;2022-11-20T03:05:21;12.53;;;6.67;;
18214;SDS011;9233;51.312;6.512;2022-11-20T03:08:08;11.97;;;6.37;;
18214;SDS011;9233;51.312;6.512;2022-11-20T03:10:54;10.90;;;7.13;;
18214;SDS011;9233;51.312;6.512;2022-11-20T03:13:41;11.73;;;6.70;;
18214;SDS011;9233;51.312;6.512;2022-11-20T03:16:30;12.83;;;7.30;;
18214;SDS011;9233;51.312;6.512;2022-11-20T03:19:17;11.93;;;6.30;;
18214;SDS011;9233;51.312;6.512;2022-11-20T03:22:03;9.90;;;6.27;;
18214;SDS011;9233;51.312;6.512;2022-11-20T03:24:50;12.30;;;6.97;;
18214;SDS011;9233;51.312;6.512;2022-11-20T03:27:37;14.07;;;7.37;;
18214;SDS011;9233;51.312;6.512;2022-11-20T03:30:23;12.27;;;6.70;;
18214;SDS011;9233;51.312;6.512;2022-11-20T03:33:11;13.80;;;7.57;;
18214;SDS011;9233;51.312;6.512;2022-11-20T03:36:00;15.03;;;7.30;;
18214;SDS011;9233;51.312;6.512;2022-11-20T03:38:48;15.10;;;7.03;;
18214;SDS011;9233;51.312;6.512;2022-11-20T03:41:35;11.83;;;6.50;;
18214;SDS011;9233;51.312;6.512;2022-11-20T03:44:23;11.70;;;6.60;;
18214;SDS011;9233;51.312;6.512;2022-11-20T03:47:10;12.77;;;7.20;;
18214;SDS011;9233;51.312;6.512;2022-11-20T03:49:57;12.70;;;7.03;;
18214;SDS011;9233;51.312;6.512;2022-11-20T03:52:44;16.47;;;7.20;;
18214;SDS011;9233;51.312;6.512;2022-11-20T03:55:31;13.47;;;7.27;;
18214;SDS011;9233;51.312;6.512;2022-11-20T03:58:17;10.67;;;5.87;;
18214;SDS011;9233;51.312;6.512;2022-11-20T04:01:04;13.30;;;6.40;;
18214;SDS011;9233;51.312;6.512;2022-11-20T04:03:52;9.40;;;5.80;;
18214;SDS011;9233;51.312;6.512;2022-11-20T04:06:41;12.90;;;6.33;;
18214;SDS011;9233;51.312;6.512;2022-11-20T04:09:28;13.13;;;6.50;;
18214;SDS011;9233;51.312;6.512;2022-11-20T04:12:14;14.87;;;7.47;;
18214;SDS011;9233;51.312;6.512;2022-11-20T04:15:01;12.47;;;6.00;;
18214;SDS011;9233;51.312;6.512;2022-11-20T04:17:48;12.47;;;6.00;;
18214;SDS011;9233;51.312;6.512;2022-11-20T04:20:34;12.87;;;7.07;;
18214;SDS011;9233;51.312;6.512;2022-11-20T04:23:22;11.77;;;7.00;;
18214;SDS011;9233;51.312;6.512;2022-11-20T04:26:10;12.50;;;6.90;;
18214;SDS011;9233;51.312;6.512;2022-11-20T04:28:57;12.53;;;6.90;;
18214;SDS011;9233;51.312;6.512;2022-11-20T04:31:46;12.77;;;7.33;;
18214;SDS011;9233;51.312;6.512;2022-11-20T04:34:33;11.23;;;6.27;;
18214;SDS011;9233;51.312;6.512;2022-11-20T04:37:19;9.07;;;5.67;;
18214;SDS011;9233;51.312;6.512;2022-11-20T04:40:08;12.90;;;6.57;;
18214;SDS011;9233;51.312;6.512;2022-11-20T04:42:55;12.17;;;7.40;;
18214;SDS011;9233;51.312;6.512;2022-11-20T04:45:42;14.20;;;7.17;;
18214;SDS011;9233;51.312;6.512;2022-11-20T04:48:28;12.53;;;6.03;;
18214;SDS011;9233;51.312;6.512;2022-11-20T04:51:15;10.40;;;6.50;;
18214;SDS011;9233;51.312;6.512;2022-11-20T04:54:02;11.30;;;6.20;;
18214;SDS011;9233;51.312;6.512;2022-11-20T04:56:50;11.50;;;6.00;;
18214;SDS011;9233;51.312;6.512;2022-11-20T04:59:37;10.63;;;6.07;;
18214;SDS011;9233;51.312;6.512;2022-11-20T05:02:23;10.07;;;6.03;;
18214;SDS011;9233;51.312;6.512;2022-11-20T05:05:10;11.37;;;6.20;;
18214;SDS011;9233;51.312;6.512;2022-11-20T05:07:56;9.70;;;6.07;;
18214;SDS011;9233;51.312;6.512;2022-11-20T05:10:43;11.80;;;6.03;;
18214;SDS011;9233;51.312;6.512;2022-11-20T05:13:31;10.33;;;5.87;;
18214;SDS011;9233;51.312;6.512;2022-11-20T05:16:18;12.23;;;6.10;;
18214;SDS011;9233;51.312;6.512;2022-11-20T05:19:06;9.87;;;6.47;;
18214;SDS011;9233;51.312;6.512;2022-11-20T05:21:52;11.10;;;6.90;;
18214;SDS011;9233;51.312;6.512;2022-11-20T05:24:39;10.63;;;6.43;;
18214;SDS011;9233;51.312;6.512;2022-11-20T05:27:25;11.23;;;6.20;;
18214;SDS011;9233;51.312;6.512;2022-11-20T05:30:14;10.30;;;5.73;;
18214;SDS011;9233;51.312;6.512;2022-11-20T05:33:00;10.03;;;5.63;;
18214;SDS011;9233;51.312;6.512;2022-11-20T05:35:47;12.10;;;6.23;;
18214;SDS011;9233;51.312;6.512;2022-11-20T05:38:34;10.80;;;6.30;;
18214;SDS011;9233;51.312;6.512;2022-11-20T05:41:21;11.10;;;5.77;;
18214;SDS011;9233;51.312;6.512;2022-11-20T05:44:09;10.77;;;6.20;;
18214;SDS011;9233;51.312;6.512;2022-11-20T05:46:57;9.30;;;5.90;;
18214;SDS011;9233;51.312;6.512;2022-11-20T05:49:44;9.30;;;5.13;;
18214;SDS011;9233;51.312;6.512;2022-11-20T05:52:30;10.07;;;6.10;;
18214;SDS011;9233;51.312;6.512;2022-11-20T05:55:17;8.90;;;5.37;;
18214;SDS011;9233;51.312;6.512;2022-11-20T05:58:04;10.07;;;5.97;;
18214;SDS011;9233;51.312;6.512;2022-11-20T06:00:50;11.07;;;5.80;;
18214;SDS011;9233;51.312;6.512;2022-11-20T06:03:38;7.87;;;5.63;;
18214;SDS011;9233;51.312;6.512;2022-11-20T06:06:25;10.67;;;6.00;;
18214;SDS011;9233;51.312;6.512;2022-11-20T06:09:12;10.10;;;6.30;;
18214;SDS011;9233;51.312;6.512;2022-11-20T06:11:58;9.13;;;5.17;;
18214;SDS011;9233;51.312;6.512;2022-11-20T06:14:45;9.07;;;5.27;;
18214;SDS011;9233;51.312;6.512;2022-11-20T06:17:31;10.33;;;5.50;;
18214;SDS011;9233;51.312;6.512;2022-11-20T06:20:19;10.07;;;5.80;;
18214;SDS011;9233;51.312;6.512;2022-11-20T06:23:06;8.70;;;5.37;;
18214;SDS011;9233;51.312;6.512;2022-11-20T06:25:53;8.90;;;5.13;;
18214;SDS011;9233;51.312;6.512;2022-11-20T06:28:39;10.00;;;5.53;;
18214;SDS011;9233;51.312;6.512;2022-11-20T06:31:26;11.23;;;5.73;;
18214;SDS011;9233;51.312;6.512;2022-11-20T06:34:13;9.80;;;5.97;;
18214;SDS011;9233;51.312;6.512;2022-11-20T06:37:01;9.60;;;5.97;;
18214;SDS011;9233;51.312;6.512;2022-11-20T06:39:48;8.57;;;5.37;;
18214;SDS011;9233;51.312;6.512;2022-11-20T06:42:34;9.83;;;6.17;;
18214;SDS011;9233;51.312;6.512;2022-11-20T06:45:21;10.23;;;6.47;;
18214;SDS011;9233;51.312;6.512;2022-11-20T06:48:08;9.40;;;5.37;;
18214;SDS011;9233;51.312;6.512;2022-11-20T06:50:55;9.50;;;5.60;;
18214;SDS011;9233;51.312;6.512;2022-11-20T06:53:43;8.87;;;5.17;;
18214;SDS011;9233;51.312;6.512;2022-11-20T06:56:30;9.23;;;5.80;;
18214;SDS011;9233;51.312;6.512;2022-11-20T06:59:16;10.30;;;6.53;;
18214;SDS011;9233;51.312;6.512;2022-11-20T07:02:03;10.07;;;5.90;;
18214;SDS011;9233;51.312;6.512;2022-11-20T07:04:49;9.10;;;5.70;;
18214;SDS011;9233;51.312;6.512;2022-11-20T07:07:36;12.13;;;5.77;;
18214;SDS011;9233;51.312;6.512;2022-11-20T07:10:24;14.53;;;6.07;;
18214;SDS011;9233;51.312;6.512;2022-11-20T07:13:10;10.40;;;6.20;;
18214;SDS011;9233;51.312;6.512;2022-11-20T07:15:59;12.37;;;6.03;;
18214;SDS011;9233;51.312;6.512;2022-11-20T07:18:46;8.23;;;5.50;;
18214;SDS011;9233;51.312;6.512;2022-11-20T07:21:32;9.20;;;5.70;;
18214;SDS011;9233;51.312;6.512;2022-11-20T07:24:19;7.33;;;5.03;;
18214;SDS011;9233;51.312;6.512;2022-11-20T07:27:06;13.17;;;5.73;;
18214;SDS011;9233;51.312;6.512;2022-11-20T07:29:53;9.60;;;5.73;;
18214;SDS011;9233;51.312;6.512;2022-11-20T07:32:40;10.37;;;5.80;;
18214;SDS011;9233;51.312;6.512;2022-11-20T07:35:26;10.27;;;5.73;;
18214;SDS011;9233;51.312;6.512;2022-11-20T07:38:13;9.57;;;5.67;;
18214;SDS011;9233;51.312;6.512;2022-11-20T07:41:00;10.57;;;6.20;;
18214;SDS011;9233;51.312;6.512;2022-11-20T07:43:48;8.70;;;5.17;;
18214;SDS011;9233;51.312;6.512;2022-11-20T07:46:34;8.13;;;5.43;;
18214;SDS011;9233;51.312;6.512;2022-11-20T07:49:21;9.73;;;5.57;;
18214;SDS011;9233;51.312;6.512;2022-11-20T07:52:07;10.27;;;6.57;;
18214;SDS011;9233;51.312;6.512;2022-11-20T07:54:54;9.50;;;6.03;;
18214;SDS011;9233;51.312;6.512;2022-11-20T07:57:41;10.87;;;6.70;;
18214;SDS011;9233;51.312;6.512;2022-11-20T08:00:29;11.87;;;6.17;;
18214;SDS011;9233;51.312;6.512;2022-11-20T08:03:15;9.60;;;6.23;;
18214;SDS011;9233;51.312;6.512;2022-11-20T08:06:02;12.53;;;6.23;;
18214;SDS011;9233;51.312;6.512;2022-11-20T08:08:48;11.80;;;6.23;;
18214;SDS011;9233;51.312;6.512;2022-11-20T08:11:35;15.10;;;7.07;;
18214;SDS011;9233;51.312;6.512;2022-11-20T08:14:54;9.17;;;5.67;;
18214;SDS011;9233;51.312;6.512;2022-11-20T08:17:44;9.47;;;6.10;;
18214;SDS011;9233;51.312;6.512;2022-11-20T08:20:31;11.47;;;5.67;;
18214;SDS011;9233;51.312;6.512;2022-11-20T08:23:18;10.30;;;6.43;;
18214;SDS011;9233;51.312;6.512;2022-11-20T08:26:04;9.53;;;5.80;;
18214;SDS011;9233;51.312;6.512;2022-11-20T08:28:52;10.13;;;5.67;;
18214;SDS011;9233;51.312;6.512;2022-11-20T08:31:40;10.03;;;5.93;;
18214;SDS011;9233;51.312;6.512;2022-11-20T08:34:28;11.43;;;6.33;;
18214;SDS011;9233;51.312;6.512;2022-11-20T08:37:14;9.83;;;6.37;;
18214;SDS011;9233;51.312;6.512;2022-11-20T08:40:01;9.50;;;6.23;;
18214;SDS011;9233;51.312;6.512;2022-11-20T08:42:47;13.60;;;6.57;;
18214;SDS011;9233;51.312;6.512;2022-11-20T08:45:34;10.97;;;6.43;;
18214;SDS011;9233;51.312;6.512;2022-11-20T08:48:21;9.37;;;6.43;;
18214;SDS011;9233;51.312;6.512;2022-11-20T08:51:09;10.33;;;5.80;;
18214;SDS011;9233;51.312;6.512;2022-11-20T08:53:56;9.70;;;5.90;;
18214;SDS011;9233;51.312;6.512;2022-11-20T08:56:42;11.53;;;5.70;;
18214;SDS011;9233;51.312;6.512;2022-11-20T08:59:29;9.57;;;6.20;;
18214;SDS011;9233;51.312;6.512;2022-11-20T09:02:16;9.93;;;5.67;;
18214;SDS011;9233;51.312;6.512;2022-11-20T09:05:02;10.50;;;6.43;;
18214;SDS011;9233;51.312;6.512;2022-11-20T09:07:51;11.30;;;5.87;;
18214;SDS011;9233;51.312;6.512;2022-11-20T09:10:37;9.87;;;5.47;;
18214;SDS011;9233;51.312;6.512;2022-11-20T09:13:25;10.00;;;5.80;;
18214;SDS011;9233;51.312;6.512;2022-11-20T09:16:12;10.30;;;6.17;;
18214;SDS011;9233;51.312;6.512;2022-11-20T09:18:59;12.43;;;6.27;;
18214;SDS011;9233;51.312;6.512;2022-11-20T09:21:45;10.37;;;6.13;;
18214;SDS011;9233;51.312;6.512;2022-11-20T09:24:33;10.03;;;6.07;;
18214;SDS011;9233;51.312;6.512;2022-11-20T09:27:20;13.40;;;6.50;;
18214;SDS011;9233;51.312;6.512;2022-11-20T09:30:07;14.67;;;7.10;;
18214;SDS011;9233;51.312;6.512;2022-11-20T09:32:54;11.53;;;6.37;;
18214;SDS011;9233;51.312;6.512;2022-11-20T09:35:41;13.97;;;7.07;;
18214;SDS011;9233;51.312;6.512;2022-11-20T09:38:28;12.63;;;7.10;;
18214;SDS011;9233;51.312;6.512;2022-11-20T09:41:33;11.43;;;6.67;;
18214;SDS011;9233;51.312;6.512;2022-11-20T09:44:33;13.77;;;6.90;;
18214;SDS011;9233;51.312;6.512;2022-11-20T09:47:29;13.83;;;6.73;;
18214;SDS011;9233;51.312;6.512;2022-11-20T09:50:23;12.80;;;7.20;;
18214;SDS011;9233;51.312;6.512;2022-11-20T09:53:16;17.93;;;8.23;;
18214;SDS011;9233;51.312;6.512;2022-11-20T09:56:07;19.00;;;8.20;;
18214;SDS011;9233;51.312;6.512;2022-11-20T09:58:57;17.37;;;8.07;;
18214;SDS011;9233;51.312;6.512;2022-11-20T10:01:45;18.00;;;8.43;;
18214;SDS011;9233;51.312;6.512;2022-11-20T10:04:32;18.87;;;8.30;;
18214;SDS011;9233;51.312;6.512;2022-11-20T10:07:30;18.83;;;8.83;;
18214;SDS011;9233;51.312;6.512;2022-11-20T10:10:27;18.67;;;9.30;;
18214;SDS011;9233;51.312;6.512;2022-11-20T10:13:20;17.90;;;8.27;;
18214;SDS011;9233;51.312;6.512;2022-11-20T10:16:17;17.90;;;8.07;;
18214;SDS011;9233;51.312;6.512;2022-11-20T10:19:11;19.57;;;9.23;;
18214;SDS011;9233;51.312;6.512;2022-11-20T10:22:09;18.43;;;8.53;;
18214;SDS011;9233;51.312;6.512;2022-11-20T10:25:01;19.63;;;8.73;;
18214;SDS011;9233;51.312;6.512;2022-11-20T10:31:09;20.37;;;9.20;;
18214;SDS011;9233;51.312;6.512;2022-11-20T10:34:00;21.30;;;9.00;;
18214;SDS011;9233;51.312;6.512;2022-11-20T10:36:49;23.13;;;9.93;;
18214;SDS011;9233;51.312;6.512;2022-11-20T10:39:40;19.83;;;8.83;;
18214;SDS011;9233;51.312;6.512;2022-11-20T10:42:31;19.73;;;9.40;;
18214;SDS011;9233;51.312;6.512;2022-11-20T10:45:22;18.53;;;8.57;;
18214;SDS011;9233;51.312;6.512;2022-11-20T10:48:19;17.87;;;8.43;;
18214;SDS011;9233;51.312;6.512;2022-11-20T10:51:18;17.63;;;8.33;;
18214;SDS011;9233;51.312;6.512;2022-11-20T10:54:12;16.73;;;8.10;;
18214;SDS011;9233;51.312;6.512;2022-11-20T10:57:05;19.43;;;8.50;;
18214;SDS011;9233;51.312;6.512;2022-11-20T11:00:00;20.10;;;9.37;;
18214;SDS011;9233;51.312;6.512;2022-11-20T11:02:51;22.83;;;10.70;;
18214;SDS011;9233;51.312;6.512;2022-11-20T11:05:39;34.67;;;14.33;;
18214;SDS011;9233;51.312;6.512;2022-11-20T11:08:32;23.70;;;11.83;;
18214;SDS011;9233;51.312;6.512;2022-11-20T11:11:22;22.53;;;10.20;;
18214;SDS011;9233;51.312;6.512;2022-11-20T11:14:10;25.00;;;10.67;;
18214;SDS011;9233;51.312;6.512;2022-11-20T11:16:58;21.80;;;10.03;;
18214;SDS011;9233;51.312;6.512;2022-11-20T11:19:45;22.27;;;9.93;;
18214;SDS011;9233;51.312;6.512;2022-11-20T11:22:32;20.93;;;10.03;;
18214;SDS011;9233;51.312;6.512;2022-11-20T11:25:26;22.30;;;10.97;;
18214;SDS011;9233;51.312;6.512;2022-11-20T11:28:19;24.90;;;11.30;;
18214;SDS011;9233;51.312;6.512;2022-11-20T11:31:07;19.87;;;9.63;;
18214;SDS011;9233;51.312;6.512;2022-11-20T11:34:03;21.30;;;9.43;;
18214;SDS011;9233;51.312;6.512;2022-11-20T11:36:52;19.57;;;9.03;;
18214;SDS011;9233;51.312;6.512;2022-11-20T11:39:42;18.10;;;8.93;;
18214;SDS011;9233;51.312;6.512;2022-11-20T11:42:31;19.70;;;8.77;;
18214;SDS011;9233;51.312;6.512;2022-11-20T11:45:17;18.17;;;9.40;;
18214;SDS011;9233;51.312;6.512;2022-11-20T11:48:03;18.27;;;9.07;;
18214;SDS011;9233;51.312;6.512;2022-11-20T11:50:50;19.20;;;9.27;;
18214;SDS011;9233;51.312;6.512;2022-11-20T11:53:37;16.40;;;8.37;;
18214;SDS011;9233;51.312;6.512;2022-11-20T11:56:26;19.03;;;8.67;;
18214;SDS011;9233;51.312;6.512;2022-11-20T11:59:17;17.90;;;7.80;;
18214;SDS011;9233;51.312;6.512;2022-11-20T12:02:12;16.27;;;7.57;;
18214;SDS011;9233;51.312;6.512;2022-11-20T12:05:09;16.80;;;8.37;;
18214;SDS011;9233;51.312;6.512;2022-11-20T12:08:03;15.97;;;7.67;;
18214;SDS011;9233;51.312;6.512;2022-11-20T12:10:53;17.20;;;8.50;;
18214;SDS011;9233;51.312;6.512;2022-11-20T12:13:44;15.97;;;8.13;;
18214;SDS011;9233;51.312;6.512;2022-11-20T12:16:36;14.83;;;7.90;;
18214;SDS011;9233;51.312;6.512;2022-11-20T12:19:24;15.07;;;7.23;;
18214;SDS011;9233;51.312;6.512;2022-11-20T12:22:13;16.73;;;8.80;;
18214;SDS011;9233;51.312;6.512;2022-11-20T12:25:06;13.63;;;7.10;;
18214;SDS011;9233;51.312;6.512;2022-11-20T12:27:58;15.73;;;7.30;;
18214;SDS011;9233;51.312;6.512;2022-11-20T12:31:15;13.80;;;6.97;;
18214;SDS011;9233;51.312;6.512;2022-11-20T12:34:18;13.70;;;7.60;;
18214;SDS011;9233;51.312;6.512;2022-11-20T12:37:30;13.40;;;6.80;;
18214;SDS011;9233;51.312;6.512;2022-11-20T12:40:24;15.40;;;7.10;;
18214;SDS011;9233;51.312;6.512;2022-11-20T12:43:16;12.33;;;6.77;;
18214;SDS011;9233;51.312;6.512;2022-11-20T12:46:25;19.47;;;9.80;;
18214;SDS011;9233;51.312;6.512;2022-11-20T12:49:20;16.43;;;8.47;;
18214;SDS011;9233;51.312;6.512;2022-11-20T12:52:18;13.53;;;6.67;;
18214;SDS011;9233;51.312;6.512;2022-11-20T12:55:16;11.30;;;6.60;;
18214;SDS011;9233;51.312;6.512;2022-11-20T12:58:10;14.93;;;6.83;;
18214;SDS011;9233;51.312;6.512;2022-11-20T13:01:00;14.07;;;7.33;;
18214;SDS011;9233;51.312;6.512;2022-11-20T13:03:51;15.73;;;7.13;;
18214;SDS011;9233;51.312;6.512;2022-11-20T13:06:41;13.53;;;6.50;;
18214;SDS011;9233;51.312;6.512;2022-11-20T13:09:28;12.30;;;6.20;;
18214;SDS011;9233;51.312;6.512;2022-11-20T13:12:17;18.03;;;8.00;;
18214;SDS011;9233;51.312;6.512;2022-11-20T13:15:16;14.70;;;6.83;;
18214;SDS011;9233;51.312;6.512;2022-11-20T13:18:09;14.97;;;7.50;;
18214;SDS011;9233;51.312;6.512;2022-11-20T13:20:56;14.60;;;7.17;;
18214;SDS011;9233;51.312;6.512;2022-11-20T13:23:44;13.73;;;6.93;;
18214;SDS011;9233;51.312;6.512;2022-11-20T13:26:31;15.23;;;7.13;;
18214;SDS011;9233;51.312;6.512;2022-11-20T13:29:18;13.30;;;7.03;;
18214;SDS011;9233;51.312;6.512;2022-11-20T13:32:05;16.80;;;7.37;;
18214;SDS011;9233;51.312;6.512;2022-11-20T13:34:53;17.57;;;8.27;;
18214;SDS011;9233;51.312;6.512;2022-11-20T13:37:41;16.97;;;7.73;;
18214;SDS011;9233;51.312;6.512;2022-11-20T13:40:29;14.40;;;7.13;;
18214;SDS011;9233;51.312;6.512;2022-11-20T13:43:19;16.63;;;7.60;;
18214;SDS011;9233;51.312;6.512;2022-11-20T13:46:09;16.10;;;7.43;;
18214;SDS011;9233;51.312;6.512;2022-11-20T13:48:56;16.13;;;8.27;;
18214;SDS011;9233;51.312;6.512;2022-11-20T13:51:43;18.77;;;8.30;;
18214;SDS011;9233;51.312;6.512;2022-11-20T13:54:47;16.83;;;7.83;;
18214;SDS011;9233;51.312;6.512;2022-11-20T13:57:42;17.10;;;7.80;;
18214;SDS011;9233;51.312;6.512;2022-11-20T14:00:41;18.03;;;7.90;;
18214;SDS011;9233;51.312;6.512;2022-11-20T14:03:30;15.73;;;7.80;;
18214;SDS011;9233;51.312;6.512;2022-11-20T14:06:21;15.83;;;7.10;;
18214;SDS011;9233;51.312;6.512;2022-11-20T14:09:12;13.83;;;7.23;;
18214;SDS011;9233;51.312;6.512;2022-11-20T14:12:14;16.47;;;8.37;;
18214;SDS011;9233;51.312;6.512;2022-11-20T14:15:03;17.07;;;8.00;;
18214;SDS011;9233;51.312;6.512;2022-11-20T14:17:50;15.43;;;7.70;;
18214;SDS011;9233;51.312;6.512;2022-11-20T14:20:37;17.43;;;8.87;;
18214;SDS011;9233;51.312;6.512;2022-11-20T14:23:24;16.73;;;8.57;;
18214;SDS011;9233;51.312;6.512;2022-11-20T14:26:12;20.87;;;10.10;;
18214;SDS011;9233;51.312;6.512;2022-11-20T14:29:00;22.53;;;9.77;;
18214;SDS011;9233;51.312;6.512;2022-11-20T14:31:51;21.97;;;9.37;;
18214;SDS011;9233;51.312;6.512;2022-11-20T14:34:40;18.60;;;9.07;;
18214;SDS011;9233;51.312;6.512;2022-11-20T14:37:28;17.77;;;8.50;;
18214;SDS011;9233;51.312;6.512;2022-11-20T14:40:24;18.57;;;8.50;;
18214;SDS011;9233;51.312;6.512;2022-11-20T14:43:17;16.43;;;8.03;;
18214;SDS011;9233;51.312;6.512;2022-11-20T14:46:05;13.77;;;7.67;;
18214;SDS011;9233;51.312;6.512;2022-11-20T14:48:55;18.20;;;8.03;;
18214;SDS011;9233;51.312;6.512;2022-11-20T14:51:43;16.93;;;8.10;;
18214;SDS011;9233;51.312;6.512;2022-11-20T14:54:31;14.50;;;8.07;;
18214;SDS011;9233;51.312;6.512;2022-11-20T14:57:23;18.00;;;9.27;;
18214;SDS011;9233;51.312;6.512;2022-11-20T15:00:18;19.13;;;8.63;;
18214;SDS011;9233;51.312;6.512;2022-11-20T15:03:13;20.17;;;9.20;;
18214;SDS011;9233;51.312;6.512;2022-11-20T15:06:03;18.27;;;8.70;;
18214;SDS011;9233;51.312;6.512;2022-11-20T15:08:50;19.20;;;8.90;;
18214;SDS011;9233;51.312;6.512;2022-11-20T15:11:37;15.80;;;8.67;;
18214;SDS011;9233;51.312;6.512;2022-11-20T15:14:23;17.93;;;8.77;;
18214;SDS011;9233;51.312;6.512;2022-11-20T15:17:11;16.67;;;8.73;;
18214;SDS011;9233;51.312;6.512;2022-11-20T15:19:58;17.97;;;8.87;;
18214;SDS011;9233;51.312;6.512;2022-11-20T15:22:47;18.37;;;8.63;;
18214;SDS011;9233;51.312;6.512;2022-11-20T15:25:33;20.03;;;9.43;;
18214;SDS011;9233;51.312;6.512;2022-11-20T15:28:20;16.83;;;8.37;;
18214;SDS011;9233;51.312;6.512;2022-11-20T15:31:09;21.93;;;8.10;;
18214;SDS011;9233;51.312;6.512;2022-11-20T15:33:58;12.83;;;7.63;;
18214;SDS011;9233;51.312;6.512;2022-11-20T15:36:44;14.97;;;8.07;;
18214;SDS011;9233;51.312;6.512;2022-11-20T15:39:32;15.40;;;7.93;;
18214;SDS011;9233;51.312;6.512;2022-11-20T15:42:19;16.33;;;8.53;;
18214;SDS011;9233;51.312;6.512;2022-11-20T15:45:06;17.63;;;8.60;;
18214;SDS011;9233;51.312;6.512;2022-11-20T15:47:53;13.70;;;7.13;;
18214;SDS011;9233;51.312;6.512;2022-11-20T15:50:41;13.60;;;7.30;;
18214;SDS011;9233;51.312;6.512;2022-11-20T15:53:32;12.70;;;7.47;;
18214;SDS011;9233;51.312;6.512;2022-11-20T15:56:21;14.63;;;7.27;;
18214;SDS011;9233;51.312;6.512;2022-11-20T15:59:08;12.87;;;7.10;;
18214;SDS011;9233;51.312;6.512;2022-11-20T16:01:54;12.60;;;7.27;;
18214;SDS011;9233;51.312;6.512;2022-11-20T16:04:41;14.10;;;7.40;;
18214;SDS011;9233;51.312;6.512;2022-11-20T16:07:28;15.53;;;8.03;;
18214;SDS011;9233;51.312;6.512;2022-11-20T16:10:14;13.67;;;7.07;;
18214;SDS011;9233;51.312;6.512;2022-11-20T16:13:02;15.13;;;7.27;;
18214;SDS011;9233;51.312;6.512;2022-11-20T16:16:21;13.53;;;7.00;;
18214;SDS011;9233;51.312;6.512;2022-11-20T16:19:10;12.97;;;6.90;;
18214;SDS011;9233;51.312;6.512;2022-11-20T16:21:57;13.67;;;7.60;;
18214;SDS011;9233;51.312;6.512;2022-11-20T16:24:44;15.23;;;7.67;;
18214;SDS011;9233;51.312;6.512;2022-11-20T16:27:31;15.33;;;7.40;;
18214;SDS011;9233;51.312;6.512;2022-11-20T16:30:19;13.40;;;7.20;;
18214;SDS011;9233;51.312;6.512;2022-11-20T16:33:08;20.33;;;10.20;;
18214;SDS011;9233;51.312;6.512;2022-11-20T16:35:55;21.10;;;9.50;;
18214;SDS011;9233;51.312;6.512;2022-11-20T16:38:42;19.47;;;8.73;;
18214;SDS011;9233;51.312;6.512;2022-11-20T16:41:30;16.13;;;7.60;;
18214;SDS011;9233;51.312;6.512;2022-11-20T16:44:17;17.03;;;9.17;;
18214;SDS011;9233;51.312;6.512;2022-11-20T16:47:05;15.40;;;7.63;;
18214;SDS011;9233;51.312;6.512;2022-11-20T16:49:52;17.87;;;7.30;;
18214;SDS011;9233;51.312;6.512;2022-11-20T16:52:38;14.40;;;7.00;;
18214;SDS011;9233;51.312;6.512;2022-11-20T16:55:25;13.03;;;6.50;;
18214;SDS011;9233;51.312;6.512;2022-11-20T16:58:11;11.03;;;5.93;;
18214;SDS011;9233;51.312;6.512;2022-11-20T17:01:03;12.77;;;6.83;;